Arlington, Arizona
Current Conditions -  °F | °C
As of 1:55 AM on Saturday 22 Nov 2014 (Local Time) from KBXK Reporting Station
Clear Clear  
Wind Chill: 41°   Ceiling: Unl
Heat Index: 45°   Visibility: 10mi
Dew Point: 25°   Wind: 6mph
Humidity: 46%   Direction: 50°NE
Pressure: 30.01"   Gusts: NA
Location:  33.33°N, 112.77°W
Report Text: KBXK 220855Z AUTO 05005KT 10SM CLR 07/M04 A3001 RMK AO1
Loading
Personal Weather Stations






























Interactive Weather Map New forecast layout! Learn more

10-Day Weather Forecast

Advertisements
Track Severe Weather on mobile